sensor_id;sensor_type;location;lat;lon;timestamp;P1;durP1;ratioP1;P2;durP2;ratioP2
15799;SDS011;8002;51.196;7.010;2022-07-17T00:00:15;1.13;;;0.93;;
15799;SDS011;8002;51.196;7.010;2022-07-17T00:02:43;1.13;;;0.90;;
15799;SDS011;8002;51.196;7.010;2022-07-17T00:05:09;1.92;;;1.05;;
15799;SDS011;8002;51.196;7.010;2022-07-17T00:07:36;0.93;;;0.65;;
15799;SDS011;8002;51.196;7.010;2022-07-17T00:10:02;1.73;;;1.10;;
15799;SDS011;8002;51.196;7.010;2022-07-17T00:12:29;1.17;;;0.98;;
15799;SDS011;8002;51.196;7.010;2022-07-17T00:14:55;0.95;;;0.88;;
15799;SDS011;8002;51.196;7.010;2022-07-17T00:17:22;2.35;;;1.00;;
15799;SDS011;8002;51.196;7.010;2022-07-17T00:19:50;0.95;;;0.93;;
15799;SDS011;8002;51.196;7.010;2022-07-17T00:22:16;1.17;;;0.90;;
15799;SDS011;8002;51.196;7.010;2022-07-17T00:24:43;1.42;;;0.88;;
15799;SDS011;8002;51.196;7.010;2022-07-17T00:27:09;1.35;;;1.15;;
15799;SDS011;8002;51.196;7.010;2022-07-17T00:29:36;1.00;;;0.82;;
15799;SDS011;8002;51.196;7.010;2022-07-17T00:32:02;1.38;;;0.95;;
15799;SDS011;8002;51.196;7.010;2022-07-17T00:34:29;2.08;;;1.00;;
15799;SDS011;8002;51.196;7.010;2022-07-17T00:36:56;1.20;;;1.00;;
15799;SDS011;8002;51.196;7.010;2022-07-17T00:39:23;1.90;;;1.45;;
15799;SDS011;8002;51.196;7.010;2022-07-17T00:41:49;1.63;;;1.25;;
15799;SDS011;8002;51.196;7.010;2022-07-17T00:44:16;1.52;;;1.33;;
15799;SDS011;8002;51.196;7.010;2022-07-17T00:46:43;1.35;;;1.25;;
15799;SDS011;8002;51.196;7.010;2022-07-17T00:49:09;2.05;;;1.40;;
15799;SDS011;8002;51.196;7.010;2022-07-17T00:51:35;2.10;;;1.20;;
15799;SDS011;8002;51.196;7.010;2022-07-17T00:54:03;1.48;;;1.20;;
15799;SDS011;8002;51.196;7.010;2022-07-17T00:56:30;1.65;;;1.45;;
15799;SDS011;8002;51.196;7.010;2022-07-17T00:58:57;1.13;;;1.05;;
15799;SDS011;8002;51.196;7.010;2022-07-17T01:01:23;1.90;;;1.20;;
15799;SDS011;8002;51.196;7.010;2022-07-17T01:03:50;2.22;;;1.20;;
15799;SDS011;8002;51.196;7.010;2022-07-17T01:06:16;1.75;;;1.13;;
15799;SDS011;8002;51.196;7.010;2022-07-17T01:08:42;2.20;;;1.00;;
15799;SDS011;8002;51.196;7.010;2022-07-17T01:11:10;2.13;;;1.20;;
15799;SDS011;8002;51.196;7.010;2022-07-17T01:13:37;1.08;;;0.90;;
15799;SDS011;8002;51.196;7.010;2022-07-17T01:16:03;1.73;;;1.20;;
15799;SDS011;8002;51.196;7.010;2022-07-17T01:18:30;2.42;;;1.17;;
15799;SDS011;8002;51.196;7.010;2022-07-17T01:21:02;3.05;;;1.10;;
15799;SDS011;8002;51.196;7.010;2022-07-17T01:23:29;2.35;;;1.30;;
15799;SDS011;8002;51.196;7.010;2022-07-17T01:25:55;1.70;;;0.90;;
15799;SDS011;8002;51.196;7.010;2022-07-17T01:28:21;2.25;;;1.00;;
15799;SDS011;8002;51.196;7.010;2022-07-17T01:30:48;1.73;;;0.90;;
15799;SDS011;8002;51.196;7.010;2022-07-17T01:33:15;2.25;;;0.90;;
15799;SDS011;8002;51.196;7.010;2022-07-17T01:35:41;1.45;;;1.13;;
15799;SDS011;8002;51.196;7.010;2022-07-17T01:38:09;1.17;;;1.05;;
15799;SDS011;8002;51.196;7.010;2022-07-17T01:40:36;1.90;;;1.10;;
15799;SDS011;8002;51.196;7.010;2022-07-17T01:43:02;1.95;;;1.30;;
15799;SDS011;8002;51.196;7.010;2022-07-17T01:45:29;1.98;;;1.27;;
15799;SDS011;8002;51.196;7.010;2022-07-17T01:47:55;1.60;;;0.98;;
15799;SDS011;8002;51.196;7.010;2022-07-17T01:50:21;1.80;;;0.90;;
15799;SDS011;8002;51.196;7.010;2022-07-17T01:52:48;1.58;;;1.00;;
15799;SDS011;8002;51.196;7.010;2022-07-17T01:55:15;2.00;;;1.17;;
15799;SDS011;8002;51.196;7.010;2022-07-17T01:57:42;1.45;;;1.00;;
15799;SDS011;8002;51.196;7.010;2022-07-17T02:00:09;1.00;;;1.00;;
15799;SDS011;8002;51.196;7.010;2022-07-17T02:02:36;1.48;;;1.00;;
15799;SDS011;8002;51.196;7.010;2022-07-17T02:05:03;0.90;;;0.73;;
15799;SDS011;8002;51.196;7.010;2022-07-17T02:07:29;1.13;;;1.00;;
15799;SDS011;8002;51.196;7.010;2022-07-17T02:09:56;1.50;;;1.17;;
15799;SDS011;8002;51.196;7.010;2022-07-17T02:12:24;2.60;;;1.00;;
15799;SDS011;8002;51.196;7.010;2022-07-17T02:14:50;1.52;;;1.00;;
15799;SDS011;8002;51.196;7.010;2022-07-17T02:17:16;1.65;;;0.90;;
15799;SDS011;8002;51.196;7.010;2022-07-17T02:19:43;1.00;;;0.85;;
15799;SDS011;8002;51.196;7.010;2022-07-17T02:22:09;1.00;;;0.90;;
15799;SDS011;8002;51.196;7.010;2022-07-17T02:24:35;1.27;;;0.77;;
15799;SDS011;8002;51.196;7.010;2022-07-17T02:27:02;1.80;;;0.70;;
15799;SDS011;8002;51.196;7.010;2022-07-17T02:29:30;1.73;;;1.10;;
15799;SDS011;8002;51.196;7.010;2022-07-17T02:31:56;1.98;;;1.08;;
15799;SDS011;8002;51.196;7.010;2022-07-17T02:34:22;1.52;;;0.70;;
15799;SDS011;8002;51.196;7.010;2022-07-17T02:36:49;1.40;;;1.10;;
15799;SDS011;8002;51.196;7.010;2022-07-17T02:39:15;1.88;;;1.15;;
15799;SDS011;8002;51.196;7.010;2022-07-17T02:41:41;2.63;;;1.00;;
15799;SDS011;8002;51.196;7.010;2022-07-17T02:44:08;1.70;;;1.00;;
15799;SDS011;8002;51.196;7.010;2022-07-17T02:46:35;2.00;;;1.00;;
15799;SDS011;8002;51.196;7.010;2022-07-17T02:49:02;1.27;;;1.00;;
15799;SDS011;8002;51.196;7.010;2022-07-17T02:51:28;1.80;;;1.00;;
15799;SDS011;8002;51.196;7.010;2022-07-17T02:53:54;1.20;;;1.00;;
15799;SDS011;8002;51.196;7.010;2022-07-17T02:56:21;2.63;;;1.17;;
15799;SDS011;8002;51.196;7.010;2022-07-17T02:58:47;1.90;;;0.90;;
15799;SDS011;8002;51.196;7.010;2022-07-17T03:01:13;2.22;;;1.10;;
15799;SDS011;8002;51.196;7.010;2022-07-17T03:03:41;0.70;;;0.70;;
15799;SDS011;8002;51.196;7.010;2022-07-17T03:06:08;3.13;;;0.90;;
15799;SDS011;8002;51.196;7.010;2022-07-17T03:08:34;1.23;;;0.80;;
15799;SDS011;8002;51.196;7.010;2022-07-17T03:11:00;1.30;;;1.02;;
15799;SDS011;8002;51.196;7.010;2022-07-17T03:13:27;1.20;;;0.85;;
15799;SDS011;8002;51.196;7.010;2022-07-17T03:15:53;0.75;;;0.75;;
15799;SDS011;8002;51.196;7.010;2022-07-17T03:18:19;1.20;;;0.90;;
15799;SDS011;8002;51.196;7.010;2022-07-17T03:20:47;0.88;;;0.77;;
15799;SDS011;8002;51.196;7.010;2022-07-17T03:23:14;1.65;;;0.73;;
15799;SDS011;8002;51.196;7.010;2022-07-17T03:25:40;1.08;;;0.77;;
15799;SDS011;8002;51.196;7.010;2022-07-17T03:28:06;1.25;;;0.80;;
15799;SDS011;8002;51.196;7.010;2022-07-17T03:30:33;1.70;;;0.77;;
15799;SDS011;8002;51.196;7.010;2022-07-17T03:32:59;0.98;;;0.88;;
15799;SDS011;8002;51.196;7.010;2022-07-17T03:35:25;1.20;;;0.70;;
15799;SDS011;8002;51.196;7.010;2022-07-17T03:37:53;1.63;;;0.73;;
15799;SDS011;8002;51.196;7.010;2022-07-17T03:40:20;0.80;;;0.80;;
15799;SDS011;8002;51.196;7.010;2022-07-17T03:42:46;1.10;;;0.73;;
15799;SDS011;8002;51.196;7.010;2022-07-17T03:45:13;1.13;;;0.80;;
15799;SDS011;8002;51.196;7.010;2022-07-17T03:47:39;1.65;;;0.93;;
15799;SDS011;8002;51.196;7.010;2022-07-17T03:50:06;1.38;;;1.00;;
15799;SDS011;8002;51.196;7.010;2022-07-17T03:52:32;1.20;;;1.10;;
15799;SDS011;8002;51.196;7.010;2022-07-17T03:55:00;1.88;;;1.20;;
15799;SDS011;8002;51.196;7.010;2022-07-17T03:57:26;1.52;;;1.30;;
15799;SDS011;8002;51.196;7.010;2022-07-17T03:59:52;1.95;;;0.90;;
15799;SDS011;8002;51.196;7.010;2022-07-17T04:02:19;2.10;;;0.95;;
15799;SDS011;8002;51.196;7.010;2022-07-17T04:04:45;1.10;;;0.80;;
15799;SDS011;8002;51.196;7.010;2022-07-17T04:07:12;1.20;;;0.80;;
15799;SDS011;8002;51.196;7.010;2022-07-17T04:09:52;1.73;;;0.95;;
15799;SDS011;8002;51.196;7.010;2022-07-17T04:12:20;1.03;;;0.77;;
15799;SDS011;8002;51.196;7.010;2022-07-17T04:14:47;0.93;;;0.70;;
15799;SDS011;8002;51.196;7.010;2022-07-17T04:17:13;2.10;;;0.90;;
15799;SDS011;8002;51.196;7.010;2022-07-17T04:19:39;0.82;;;0.80;;
15799;SDS011;8002;51.196;7.010;2022-07-17T04:22:06;1.77;;;0.80;;
15799;SDS011;8002;51.196;7.010;2022-07-17T04:24:32;1.95;;;0.70;;
15799;SDS011;8002;51.196;7.010;2022-07-17T04:26:58;1.83;;;0.70;;
15799;SDS011;8002;51.196;7.010;2022-07-17T04:29:26;1.15;;;0.88;;
15799;SDS011;8002;51.196;7.010;2022-07-17T04:31:52;1.55;;;0.95;;
15799;SDS011;8002;51.196;7.010;2022-07-17T04:34:19;0.85;;;0.85;;
15799;SDS011;8002;51.196;7.010;2022-07-17T04:36:45;2.70;;;1.02;;
15799;SDS011;8002;51.196;7.010;2022-07-17T04:39:11;1.60;;;0.82;;
15799;SDS011;8002;51.196;7.010;2022-07-17T04:41:38;0.82;;;0.77;;
15799;SDS011;8002;51.196;7.010;2022-07-17T04:44:04;1.48;;;0.88;;
15799;SDS011;8002;51.196;7.010;2022-07-17T04:46:32;1.70;;;0.82;;
15799;SDS011;8002;51.196;7.010;2022-07-17T04:48:58;1.40;;;0.98;;
15799;SDS011;8002;51.196;7.010;2022-07-17T04:51:24;1.52;;;0.73;;
15799;SDS011;8002;51.196;7.010;2022-07-17T04:53:51;1.60;;;1.10;;
15799;SDS011;8002;51.196;7.010;2022-07-17T04:56:17;1.63;;;1.08;;
15799;SDS011;8002;51.196;7.010;2022-07-17T04:58:44;2.42;;;1.02;;
15799;SDS011;8002;51.196;7.010;2022-07-17T05:01:10;1.77;;;1.20;;
15799;SDS011;8002;51.196;7.010;2022-07-17T05:03:38;1.92;;;1.20;;
15799;SDS011;8002;51.196;7.010;2022-07-17T05:06:04;1.35;;;1.10;;
15799;SDS011;8002;51.196;7.010;2022-07-17T05:08:31;1.50;;;1.25;;
15799;SDS011;8002;51.196;7.010;2022-07-17T05:10:57;1.30;;;1.17;;
15799;SDS011;8002;51.196;7.010;2022-07-17T05:13:24;1.07;;;0.97;;
15799;SDS011;8002;51.196;7.010;2022-07-17T05:15:50;4.43;;;2.53;;
15799;SDS011;8002;51.196;7.010;2022-07-17T05:18:17;2.55;;;2.08;;
15799;SDS011;8002;51.196;7.010;2022-07-17T05:20:44;4.27;;;2.30;;
15799;SDS011;8002;51.196;7.010;2022-07-17T05:23:11;2.57;;;2.20;;
15799;SDS011;8002;51.196;7.010;2022-07-17T05:25:37;2.33;;;1.90;;
15799;SDS011;8002;51.196;7.010;2022-07-17T05:28:03;2.15;;;1.65;;
15799;SDS011;8002;51.196;7.010;2022-07-17T05:30:30;1.20;;;1.10;;
15799;SDS011;8002;51.196;7.010;2022-07-17T05:32:56;2.50;;;1.27;;
15799;SDS011;8002;51.196;7.010;2022-07-17T05:35:23;1.50;;;1.20;;
15799;SDS011;8002;51.196;7.010;2022-07-17T05:37:50;3.03;;;1.10;;
15799;SDS011;8002;51.196;7.010;2022-07-17T05:40:17;1.45;;;0.90;;
15799;SDS011;8002;51.196;7.010;2022-07-17T05:42:43;1.10;;;1.00;;
15799;SDS011;8002;51.196;7.010;2022-07-17T05:45:10;1.40;;;1.30;;
15799;SDS011;8002;51.196;7.010;2022-07-17T05:47:36;3.33;;;2.35;;
15799;SDS011;8002;51.196;7.010;2022-07-17T05:50:03;3.85;;;2.40;;
15799;SDS011;8002;51.196;7.010;2022-07-17T05:52:29;2.42;;;2.10;;
15799;SDS011;8002;51.196;7.010;2022-07-17T05:54:57;1.40;;;1.25;;
15799;SDS011;8002;51.196;7.010;2022-07-17T05:57:23;2.78;;;1.10;;
15799;SDS011;8002;51.196;7.010;2022-07-17T05:59:49;2.08;;;1.25;;
15799;SDS011;8002;51.196;7.010;2022-07-17T06:02:16;4.38;;;1.42;;
15799;SDS011;8002;51.196;7.010;2022-07-17T06:04:42;2.65;;;0.95;;
15799;SDS011;8002;51.196;7.010;2022-07-17T06:07:08;3.33;;;1.23;;
15799;SDS011;8002;51.196;7.010;2022-07-17T06:09:35;4.22;;;1.10;;
15799;SDS011;8002;51.196;7.010;2022-07-17T06:12:03;3.55;;;1.42;;
15799;SDS011;8002;51.196;7.010;2022-07-17T06:14:29;2.05;;;1.20;;
15799;SDS011;8002;51.196;7.010;2022-07-17T06:16:55;3.38;;;1.50;;
15799;SDS011;8002;51.196;7.010;2022-07-17T06:19:22;4.95;;;1.25;;
15799;SDS011;8002;51.196;7.010;2022-07-17T06:21:48;2.00;;;1.40;;
15799;SDS011;8002;51.196;7.010;2022-07-17T06:24:14;1.35;;;1.00;;
15799;SDS011;8002;51.196;7.010;2022-07-17T06:26:41;1.52;;;0.95;;
15799;SDS011;8002;51.196;7.010;2022-07-17T06:29:08;2.70;;;0.90;;
15799;SDS011;8002;51.196;7.010;2022-07-17T06:31:35;1.92;;;1.10;;
15799;SDS011;8002;51.196;7.010;2022-07-17T06:34:01;1.45;;;0.93;;
15799;SDS011;8002;51.196;7.010;2022-07-17T06:36:27;1.02;;;0.90;;
15799;SDS011;8002;51.196;7.010;2022-07-17T06:38:54;2.50;;;1.25;;
15799;SDS011;8002;51.196;7.010;2022-07-17T06:41:20;2.05;;;1.42;;
15799;SDS011;8002;51.196;7.010;2022-07-17T06:43:47;3.15;;;1.13;;
15799;SDS011;8002;51.196;7.010;2022-07-17T06:46:14;1.45;;;0.90;;
15799;SDS011;8002;51.196;7.010;2022-07-17T06:48:41;1.48;;;1.10;;
15799;SDS011;8002;51.196;7.010;2022-07-17T06:51:07;3.70;;;0.90;;
15799;SDS011;8002;51.196;7.010;2022-07-17T06:53:33;3.03;;;1.20;;
15799;SDS011;8002;51.196;7.010;2022-07-17T06:56:00;1.75;;;1.08;;
15799;SDS011;8002;51.196;7.010;2022-07-17T06:58:26;1.55;;;0.82;;
15799;SDS011;8002;51.196;7.010;2022-07-17T07:00:53;1.52;;;0.90;;
15799;SDS011;8002;51.196;7.010;2022-07-17T07:03:20;2.28;;;1.13;;
15799;SDS011;8002;51.196;7.010;2022-07-17T19:27:05;1.35;;;1.13;;
15799;SDS011;8002;51.196;7.010;2022-07-17T19:29:31;6.22;;;4.05;;
15799;SDS011;8002;51.196;7.010;2022-07-17T19:31:58;1.35;;;0.88;;
15799;SDS011;8002;51.196;7.010;2022-07-17T19:34:24;1.35;;;0.93;;
15799;SDS011;8002;51.196;7.010;2022-07-17T19:49:03;64.05;;;50.08;;
15799;SDS011;8002;51.196;7.010;2022-07-17T22:17:50;45.17;;;36.05;;
15799;SDS011;8002;51.196;7.010;2022-07-17T23:04:10;39.03;;;31.63;;
